Time;durP1;ratioP1;P1;durP2;ratioP2;P2;SDS_P1;SDS_P2;PMS_P1;PMS_P2;Temp;Humidity;BMP_temperature;BMP_pressure;BME280_temperature;BME280_humidity;BME280_pressure;Samples;Min_cycle;Max_cycle;Signal;HPM_P1;HPM_P2
2022/12/09 00:00:26;;;;;;;76.22;42.72;;;1.00;99.90;;;;;;5051432;28;20457;-81
2022/12/09 00:02:52;;;;;;;84.72;42.20;;;1.00;99.90;;;;;;5052618;28;20021;-81
2022/12/09 00:05:17;;;;;;;77.03;38.05;;;1.00;99.90;;;;;;5060099;28;20470;-81
2022/12/09 00:07:43;;;;;;;81.75;42.45;;;1.00;99.90;;;;;;5071232;28;20032;-82
2022/12/09 00:10:08;;;;;;;89.07;43.65;;;1.10;99.90;;;;;;5072757;28;20059;-81
2022/12/09 00:12:34;;;;;;;90.32;44.63;;;1.00;99.90;;;;;;5073946;28;20028;-82
2022/12/09 00:15:00;;;;;;;87.32;44.75;;;1.00;99.90;;;;;;5075077;28;20115;-82
2022/12/09 00:17:25;;;;;;;84.93;44.55;;;1.00;99.90;;;;;;5074951;28;20021;-81
2022/12/09 00:19:51;;;;;;;84.05;46.72;;;1.00;99.90;;;;;;5076209;28;20021;-82
2022/12/09 00:22:16;;;;;;;81.90;41.95;;;1.00;99.90;;;;;;5076201;28;20099;-81
2022/12/09 00:24:42;;;;;;;82.55;43.95;;;1.00;99.90;;;;;;5074803;28;20027;-82
2022/12/09 00:27:07;;;;;;;86.32;43.45;;;1.00;99.90;;;;;;5074753;28;20493;-81
2022/12/09 00:29:33;;;;;;;79.45;45.45;;;1.10;99.90;;;;;;5074821;28;20035;-82
2022/12/09 00:31:59;;;;;;;87.28;44.80;;;1.00;99.90;;;;;;5074820;28;20028;-81
2022/12/09 00:34:24;;;;;;;87.20;43.70;;;1.00;99.90;;;;;;5068646;28;20025;-82
2022/12/09 00:36:50;;;;;;;79.15;40.90;;;1.00;99.90;;;;;;5056042;28;20025;-81
2022/12/09 00:39:15;;;;;;;79.43;40.92;;;1.00;99.90;;;;;;5055861;28;20029;-82
2022/12/09 00:41:41;;;;;;;86.20;42.83;;;1.00;99.90;;;;;;5054650;28;20425;-81
2022/12/09 00:44:07;;;;;;;83.80;41.63;;;1.00;99.90;;;;;;5054544;28;20025;-81
2022/12/09 00:46:32;;;;;;;84.60;43.53;;;1.00;99.90;;;;;;5054185;28;20052;-81
2022/12/09 00:48:58;;;;;;;85.57;43.38;;;1.00;99.90;;;;;;5055699;28;20526;-81
2022/12/09 00:51:24;;;;;;;72.68;37.88;;;1.00;99.90;;;;;;5054426;28;20071;-81
2022/12/09 00:53:54;;;;;;;77.97;38.67;;;1.00;99.90;;;;;;5058381;28;20045;-81
2022/12/09 00:56:27;;;;;;;74.38;34.95;;;1.00;99.90;;;;;;5055703;28;20017;-81
2022/12/09 00:58:52;;;;;;;72.22;36.25;;;1.00;99.90;;;;;;5054251;28;20021;-82
2022/12/09 01:01:18;;;;;;;73.53;37.00;;;1.00;99.90;;;;;;5055715;28;20028;-81
2022/12/09 01:03:44;;;;;;;78.82;37.03;;;1.00;99.90;;;;;;5054042;28;20394;-81
2022/12/09 01:06:13;;;;;;;69.13;37.20;;;1.10;99.90;;;;;;5054155;28;20065;-81
2022/12/09 01:08:39;;;;;;;72.45;34.97;;;1.10;99.90;;;;;;5054128;28;20171;-81
2022/12/09 01:11:17;;;;;;;78.45;41.15;;;1.10;99.90;;;;;;5054140;28;20115;-82
2022/12/09 01:13:42;;;;;;;80.70;39.08;;;1.10;99.90;;;;;;5053999;28;20493;-82
2022/12/09 01:16:22;;;;;;;77.68;40.72;;;1.10;99.90;;;;;;5054039;28;20029;-82
2022/12/09 01:18:48;;;;;;;72.43;37.67;;;1.10;99.90;;;;;;5053858;28;20029;-81
2022/12/09 01:21:14;;;;;;;77.38;41.05;;;1.10;99.90;;;;;;5058113;28;20016;-82
2022/12/09 01:23:40;;;;;;;88.13;44.03;;;1.10;99.90;;;;;;5073738;28;20508;-80
2022/12/09 01:26:06;;;;;;;90.18;44.63;;;1.10;99.90;;;;;;5073765;28;20029;-81
2022/12/09 01:28:37;;;;;;;85.63;44.75;;;1.10;99.90;;;;;;5073684;28;20413;-82
2022/12/09 01:31:12;;;;;;;91.90;45.03;;;1.10;99.90;;;;;;5073787;28;20031;-81
2022/12/09 01:33:38;;;;;;;90.53;46.45;;;1.10;99.90;;;;;;5072718;28;20181;-81
2022/12/09 01:36:06;;;;;;;92.25;47.05;;;1.10;99.90;;;;;;5053625;28;20493;-81
2022/12/09 01:38:31;;;;;;;98.03;48.95;;;1.10;99.90;;;;;;5053320;28;20029;-82
2022/12/09 01:40:57;;;;;;;87.32;47.42;;;1.10;99.90;;;;;;5053602;28;20029;-81
2022/12/09 01:43:23;;;;;;;91.82;45.80;;;1.10;99.90;;;;;;5070254;28;20021;-82
2022/12/09 01:45:48;;;;;;;82.05;42.28;;;1.10;99.90;;;;;;5074548;28;20123;-82
2022/12/09 01:48:17;;;;;;;86.07;44.13;;;1.10;99.90;;;;;;5073363;28;20470;-82
2022/12/09 01:51:08;;;;;;;74.50;41.05;;;1.10;99.90;;;;;;5074640;28;20052;-82
2022/12/09 01:53:37;;;;;;;76.88;40.33;;;1.10;99.90;;;;;;5061930;28;20074;-81
2022/12/09 01:56:09;;;;;;;68.60;36.35;;;1.10;99.90;;;;;;5053359;28;20024;-82
2022/12/09 01:58:35;;;;;;;67.68;36.92;;;1.10;99.90;;;;;;5053153;28;20422;-81
2022/12/09 02:01:01;;;;;;;68.78;37.22;;;1.10;99.90;;;;;;5054516;28;20017;-82
2022/12/09 02:03:26;;;;;;;66.35;35.75;;;1.10;99.90;;;;;;5064318;28;20390;-81
2022/12/09 02:05:52;;;;;;;63.35;34.20;;;1.10;99.90;;;;;;5072821;28;20107;-80
2022/12/09 02:08:18;;;;;;;61.08;33.05;;;1.10;99.90;;;;;;5072958;28;20017;-81
2022/12/09 02:11:06;;;;;;;63.45;34.35;;;1.10;99.90;;;;;;5074087;28;20024;-81
2022/12/09 02:13:45;;;;;;;60.83;31.92;;;1.20;99.90;;;;;;5074195;28;20044;-81
2022/12/09 02:16:16;;;;;;;67.68;33.47;;;1.10;99.90;;;;;;5074251;28;20031;-81
2022/12/09 02:18:46;;;;;;;64.70;34.42;;;1.10;99.90;;;;;;5072713;28;20111;-81
2022/12/09 02:21:24;;;;;;;76.00;37.58;;;1.10;99.90;;;;;;5072669;28;20093;-81
2022/12/09 02:24:29;;;;;;;72.72;35.45;;;1.10;99.90;;;;;;5071508;28;20048;-81
2022/12/09 02:27:06;;;;;;;76.78;37.70;;;1.20;99.90;;;;;;5053894;28;20059;-81
2022/12/09 02:29:53;;;;;;;66.88;35.92;;;1.20;99.90;;;;;;5052464;28;20552;-81
2022/12/09 02:32:38;;;;;;;70.03;35.92;;;1.20;99.90;;;;;;5068308;28;20021;-81
2022/12/09 02:35:30;;;;;;;71.30;35.60;;;1.20;99.90;;;;;;5059034;28;20466;-81
2022/12/09 02:37:58;;;;;;;69.75;35.45;;;1.20;99.90;;;;;;5033770;28;20398;-81
2022/12/09 02:40:45;;;;;;;67.47;34.40;;;1.20;99.90;;;;;;5032419;28;20056;-81
2022/12/09 02:43:12;;;;;;;58.75;31.67;;;1.20;99.90;;;;;;5032490;28;20041;-81
2022/12/09 02:45:41;;;;;;;63.75;32.55;;;1.20;99.90;;;;;;5033457;28;20111;-82
2022/12/09 02:48:09;;;;;;;59.35;33.28;;;1.20;99.90;;;;;;5033548;28;20033;-81
2022/12/09 02:50:37;;;;;;;69.35;35.78;;;1.20;99.90;;;;;;5032146;28;20383;-81
2022/12/09 02:53:07;;;;;;;75.07;35.78;;;1.20;99.90;;;;;;5047169;28;20416;-81
2022/12/09 02:55:34;;;;;;;58.78;32.38;;;1.10;99.90;;;;;;5073336;28;20385;-81
2022/12/09 02:58:00;;;;;;;64.60;33.45;;;1.10;99.90;;;;;;5072122;28;20033;-82
2022/12/09 03:00:26;;;;;;;68.60;34.00;;;1.10;99.90;;;;;;5059624;28;20108;-81
2022/12/09 03:02:59;;;;;;;65.90;33.13;;;1.20;99.90;;;;;;5051983;28;20101;-81
2022/12/09 03:05:24;;;;;;;66.85;32.47;;;1.20;99.90;;;;;;5051896;28;20059;-81
2022/12/09 03:08:20;;;;;;;68.25;33.38;;;1.20;99.90;;;;;;5051883;28;20072;-81
2022/12/09 03:11:05;;;;;;;59.97;32.10;;;1.20;99.90;;;;;;5053087;28;20041;-80
2022/12/09 03:13:51;;;;;;;69.38;33.20;;;1.20;99.90;;;;;;5051942;28;20425;-81
2022/12/09 03:16:21;;;;;;;70.95;34.60;;;1.10;99.90;;;;;;5051765;28;20032;-80
2022/12/09 03:18:54;;;;;;;70.32;33.20;;;1.20;99.90;;;;;;5053340;28;20485;-80
2022/12/09 03:21:22;;;;;;;67.28;34.08;;;1.20;99.90;;;;;;5070004;28;20017;-81
2022/12/09 03:23:51;;;;;;;69.68;33.15;;;1.20;99.90;;;;;;5071790;28;20016;-81
2022/12/09 03:26:17;;;;;;;68.95;32.95;;;1.20;99.90;;;;;;5071635;28;20025;-81
2022/12/09 03:28:48;;;;;;;57.67;31.23;;;1.10;99.90;;;;;;5071810;28;20363;-81
2022/12/09 03:31:18;;;;;;;65.53;31.77;;;1.10;99.90;;;;;;5071696;28;20067;-81
2022/12/09 03:33:47;;;;;;;53.47;28.48;;;1.10;99.90;;;;;;5069435;28;20030;-81
2022/12/09 03:36:16;;;;;;;58.95;28.52;;;1.10;99.90;;;;;;5051577;28;20032;-81
2022/12/09 03:38:45;;;;;;;48.05;24.77;;;1.10;99.90;;;;;;5051609;28;20025;-81
2022/12/09 03:41:31;;;;;;;50.63;27.55;;;1.10;99.90;;;;;;5052699;28;20586;-81
2022/12/09 03:44:03;;;;;;;65.53;30.85;;;1.20;99.90;;;;;;5051746;28;20075;-81
2022/12/09 03:46:29;;;;;;;55.87;28.40;;;1.20;99.90;;;;;;5051409;28;20449;-81
2022/12/09 03:48:56;;;;;;;53.85;27.80;;;1.10;99.90;;;;;;5055393;28;20020;-81
2022/12/09 03:51:46;;;;;;;49.05;26.55;;;1.10;99.90;;;;;;5056752;28;20383;-81
2022/12/09 03:54:18;;;;;;;53.55;28.27;;;1.10;99.90;;;;;;5073573;28;20035;-81
2022/12/09 03:56:48;;;;;;;56.67;31.63;;;1.10;99.90;;;;;;5075512;28;20017;-81
2022/12/09 03:59:14;;;;;;;49.42;26.25;;;1.10;99.90;;;;;;5075420;28;20023;-81
2022/12/09 04:01:42;;;;;;;54.85;29.13;;;1.10;99.90;;;;;;5064313;28;20021;-81
2022/12/09 04:04:08;;;;;;;62.88;29.90;;;1.10;99.90;;;;;;5055268;28;20083;-81
2022/12/09 04:06:34;;;;;;;53.35;29.90;;;1.10;99.90;;;;;;5056353;28;20087;-82
2022/12/09 04:09:00;;;;;;;50.63;26.73;;;1.10;99.90;;;;;;5055256;28;20478;-81
2022/12/09 04:11:25;;;;;;;53.75;26.50;;;1.10;99.90;;;;;;5056383;28;20029;-81
2022/12/09 04:13:51;;;;;;;51.80;26.38;;;1.10;99.90;;;;;;5056549;28;20061;-81
2022/12/09 04:16:16;;;;;;;46.67;25.88;;;1.10;99.90;;;;;;5055060;28;20374;-81
2022/12/09 04:18:42;;;;;;;42.45;23.35;;;1.10;99.90;;;;;;5056344;28;20028;-81
2022/12/09 04:21:10;;;;;;;51.38;27.25;;;1.10;99.90;;;;;;5054915;28;20029;-81
2022/12/09 04:23:36;;;;;;;53.38;26.08;;;1.10;99.90;;;;;;5056352;28;20409;-81
2022/12/09 04:26:02;;;;;;;47.40;24.63;;;1.10;99.90;;;;;;5056131;28;20112;-81
2022/12/09 04:28:28;;;;;;;43.97;24.38;;;1.10;99.90;;;;;;5054835;28;20017;-81
2022/12/09 04:30:53;;;;;;;41.13;23.92;;;1.10;99.90;;;;;;5054751;28;20115;-81
2022/12/09 04:33:19;;;;;;;47.65;25.08;;;1.10;99.90;;;;;;5056140;28;20029;-81
2022/12/09 04:35:44;;;;;;;45.83;23.70;;;1.10;99.90;;;;;;5055774;28;20028;-81
2022/12/09 04:38:10;;;;;;;42.97;22.50;;;1.10;99.90;;;;;;5056066;28;20390;-81
2022/12/09 04:40:37;;;;;;;46.90;24.10;;;1.10;99.90;;;;;;5055988;28;20025;-81
2022/12/09 04:43:02;;;;;;;45.90;22.63;;;1.10;99.90;;;;;;5054553;28;20112;-80
2022/12/09 04:45:28;;;;;;;45.15;25.00;;;1.10;99.90;;;;;;5054366;28;20593;-81
2022/12/09 04:47:53;;;;;;;43.72;25.00;;;1.10;99.90;;;;;;5054444;28;20120;-81
2022/12/09 04:50:19;;;;;;;49.90;26.23;;;1.10;99.90;;;;;;5054514;28;20075;-81
2022/12/09 04:52:45;;;;;;;49.83;25.65;;;1.10;99.90;;;;;;5059335;28;20059;-81
2022/12/09 04:55:12;;;;;;;59.17;28.88;;;1.10;99.90;;;;;;5074334;28;20020;-80
2022/12/09 04:57:38;;;;;;;55.30;29.52;;;1.10;99.90;;;;;;5075363;28;20027;-81
2022/12/09 05:00:05;;;;;;;50.22;26.02;;;1.10;99.90;;;;;;5074235;28;20115;-82
2022/12/09 05:02:30;;;;;;;49.00;26.15;;;1.10;99.90;;;;;;5074177;28;20031;-81
2022/12/09 05:04:56;;;;;;;46.13;25.02;;;1.10;99.90;;;;;;5074217;28;20028;-81
2022/12/09 05:07:22;;;;;;;44.03;23.40;;;1.10;99.90;;;;;;5074051;28;20120;-82
2022/12/09 05:09:48;;;;;;;48.83;25.15;;;1.10;99.90;;;;;;5075341;28;20488;-80
2022/12/09 05:12:13;;;;;;;46.70;21.63;;;1.10;99.90;;;;;;5074129;28;20021;-81
2022/12/09 05:14:40;;;;;;;46.15;25.55;;;1.10;99.90;;;;;;5073995;28;20154;-81
2022/12/09 05:17:06;;;;;;;46.95;24.60;;;1.10;99.90;;;;;;5075169;28;20114;-81
2022/12/09 05:19:31;;;;;;;42.15;22.70;;;1.10;99.90;;;;;;5073884;28;20024;-81
2022/12/09 05:21:57;;;;;;;43.53;22.75;;;1.10;99.90;;;;;;5073855;28;20021;-82
2022/12/09 05:24:23;;;;;;;45.63;22.85;;;1.10;99.90;;;;;;5073980;28;20031;-80
2022/12/09 05:26:48;;;;;;;41.17;22.63;;;1.10;99.90;;;;;;5047468;28;20033;-82
2022/12/09 05:29:14;;;;;;;45.90;24.02;;;1.10;99.90;;;;;;5050897;28;20083;-80
2022/12/09 05:31:40;;;;;;;44.25;22.50;;;1.10;99.90;;;;;;5054963;28;20075;-81
2022/12/09 05:34:06;;;;;;;36.05;21.10;;;1.10;99.90;;;;;;5054861;28;20039;-80
2022/12/09 05:36:31;;;;;;;38.28;24.35;;;1.10;99.90;;;;;;5050655;28;20108;-82
2022/12/09 05:38:57;;;;;;;42.65;23.00;;;1.10;99.90;;;;;;5033738;28;20136;-80
2022/12/09 05:41:23;;;;;;;44.55;24.17;;;1.10;99.90;;;;;;5034915;28;20025;-80
2022/12/09 05:43:49;;;;;;;48.63;24.20;;;1.10;99.90;;;;;;5033442;28;20018;-81
2022/12/09 05:46:15;;;;;;;46.28;22.90;;;1.10;99.90;;;;;;5057063;28;20041;-81
2022/12/09 05:48:41;;;;;;;42.28;24.50;;;1.10;99.90;;;;;;5073217;28;20094;-82
2022/12/09 05:51:13;;;;;;;42.17;23.48;;;1.10;99.90;;;;;;5062556;28;20033;-82
2022/12/09 05:53:38;;;;;;;46.33;24.07;;;1.10;99.90;;;;;;5055521;28;20421;-81
2022/12/09 05:56:04;;;;;;;43.65;22.15;;;1.10;99.90;;;;;;5062273;28;20058;-82
2022/12/09 05:58:29;;;;;;;48.97;24.75;;;1.00;99.90;;;;;;5074088;28;20021;-82
2022/12/09 06:00:56;;;;;;;50.92;24.40;;;1.10;99.90;;;;;;5062513;28;20108;-81
2022/12/09 06:03:22;;;;;;;43.22;24.60;;;1.10;99.90;;;;;;5068172;28;20385;-81
2022/12/09 06:05:48;;;;;;;53.95;28.60;;;1.00;99.90;;;;;;5046650;28;20017;-82
2022/12/09 06:08:14;;;;;;;65.20;32.15;;;1.00;99.90;;;;;;5047609;28;20044;-81
2022/12/09 06:10:40;;;;;;;69.63;34.80;;;1.10;99.90;;;;;;5045558;28;20383;-82
2022/12/09 06:13:06;;;;;;;49.25;26.35;;;1.00;99.90;;;;;;5044052;28;20028;-81
2022/12/09 06:15:33;;;;;;;55.10;27.73;;;1.00;99.90;;;;;;5044286;28;20035;-80
2022/12/09 06:17:58;;;;;;;55.47;27.25;;;1.00;99.90;;;;;;5049300;28;20107;-83
2022/12/09 06:20:24;;;;;;;57.15;28.35;;;1.00;99.90;;;;;;5041625;28;20535;-80
2022/12/09 06:22:49;;;;;;;48.08;26.48;;;1.00;99.90;;;;;;5051320;28;20857;-80
2022/12/09 06:25:15;;;;;;;50.47;27.27;;;1.00;99.90;;;;;;5066421;28;20031;-80
2022/12/09 06:27:41;;;;;;;52.50;26.63;;;1.00;99.90;;;;;;5048831;28;20037;-81
2022/12/09 06:30:07;;;;;;;54.35;26.13;;;1.10;99.90;;;;;;5047930;28;20036;-80
2022/12/09 06:32:33;;;;;;;60.40;31.23;;;1.00;99.90;;;;;;5044977;28;20024;-80
2022/12/09 06:34:58;;;;;;;53.13;27.85;;;1.00;99.90;;;;;;5050202;28;20502;-82
2022/12/09 06:37:24;;;;;;;61.20;29.77;;;1.10;99.90;;;;;;5043771;28;20545;-83
2022/12/09 06:39:49;;;;;;;68.53;34.28;;;1.10;99.90;;;;;;5048109;28;20021;-82
2022/12/09 06:42:15;;;;;;;64.65;34.40;;;1.00;99.90;;;;;;5050461;28;20030;-81
2022/12/09 06:44:41;;;;;;;66.70;34.50;;;1.10;99.90;;;;;;5043556;28;20044;-80
2022/12/09 06:47:06;;;;;;;66.40;35.15;;;1.10;99.90;;;;;;5042191;28;20402;-80
2022/12/09 06:49:32;;;;;;;53.78;32.03;;;1.10;99.90;;;;;;5048059;28;20025;-80
2022/12/09 06:51:58;;;;;;;58.40;32.58;;;1.10;99.90;;;;;;5055984;28;20024;-82
2022/12/09 06:54:23;;;;;;;60.90;33.13;;;1.10;99.90;;;;;;5054752;28;20020;-82
2022/12/09 06:56:49;;;;;;;64.57;32.30;;;1.10;99.90;;;;;;5042229;28;20029;-80
2022/12/09 06:59:15;;;;;;;55.85;33.15;;;1.10;99.90;;;;;;5042171;28;20017;-81
2022/12/09 07:01:41;;;;;;;70.72;34.28;;;1.00;99.90;;;;;;5040867;28;20021;-82
2022/12/09 07:04:06;;;;;;;72.22;39.35;;;1.00;99.90;;;;;;5040953;28;20030;-81
2022/12/09 07:06:37;;;;;;;69.78;39.08;;;1.00;99.90;;;;;;5042844;28;20394;-82
2022/12/09 07:09:15;;;;;;;76.25;42.38;;;1.00;99.90;;;;;;5041784;28;20029;-81
2022/12/09 07:11:47;;;;;;;74.53;43.50;;;1.00;99.90;;;;;;5040199;28;20112;-81
2022/12/09 07:14:14;;;;;;;83.13;44.40;;;1.00;99.90;;;;;;5039941;28;20438;-81
2022/12/09 07:16:40;;;;;;;74.25;40.85;;;1.10;99.90;;;;;;5041204;28;20022;-81
2022/12/09 07:19:06;;;;;;;79.55;43.58;;;1.10;99.90;;;;;;5041244;28;20385;-81
2022/12/09 07:21:32;;;;;;;76.75;39.70;;;1.10;99.90;;;;;;5041339;28;20020;-81
2022/12/09 07:23:59;;;;;;;89.47;44.85;;;1.10;99.90;;;;;;5040916;28;20391;-82
2022/12/09 07:26:31;;;;;;;78.20;41.63;;;1.20;99.90;;;;;;5040048;28;20490;-81
2022/12/09 07:28:56;;;;;;;71.80;37.92;;;1.20;99.90;;;;;;5040701;28;20021;-80
2022/12/09 07:31:25;;;;;;;74.70;36.38;;;1.20;99.90;;;;;;5041635;28;20479;-80
2022/12/09 07:33:52;;;;;;;78.43;40.08;;;1.20;99.90;;;;;;5042507;28;20101;-81
2022/12/09 07:36:18;;;;;;;71.28;39.45;;;1.30;99.90;;;;;;5042319;28;20584;-81
2022/12/09 07:38:44;;;;;;;95.05;45.03;;;1.30;99.90;;;;;;5039603;28;20532;-81
2022/12/09 07:41:16;;;;;;;80.40;42.22;;;1.20;99.90;;;;;;5042295;28;20033;-83
2022/12/09 07:43:43;;;;;;;81.07;43.58;;;1.30;99.90;;;;;;5042119;28;20017;-83
2022/12/09 07:46:09;;;;;;;84.53;42.53;;;1.30;99.90;;;;;;5040714;28;20041;-82
2022/12/09 07:48:35;;;;;;;72.07;36.85;;;1.40;99.90;;;;;;5044491;28;20068;-81
2022/12/09 07:51:02;;;;;;;57.67;30.88;;;1.40;99.90;;;;;;5041143;28;20077;-83
2022/12/09 07:53:28;;;;;;;64.65;31.38;;;1.40;99.90;;;;;;5044286;28;20082;-83
2022/12/09 07:55:54;;;;;;;65.15;33.08;;;1.50;99.90;;;;;;5039066;28;20026;-83
2022/12/09 07:58:20;;;;;;;58.63;29.52;;;1.50;99.90;;;;;;5043868;28;20094;-83
2022/12/09 08:00:45;;;;;;;51.38;26.52;;;1.50;99.90;;;;;;5039982;28;20085;-83
2022/12/09 08:03:14;;;;;;;53.13;26.80;;;1.50;99.90;;;;;;5042990;28;20538;-81
2022/12/09 08:05:55;;;;;;;43.60;26.35;;;1.50;99.90;;;;;;5040820;28;20056;-81
2022/12/09 08:08:21;;;;;;;53.60;30.05;;;1.50;99.90;;;;;;5040677;28;20037;-80
2022/12/09 08:10:46;;;;;;;56.88;31.70;;;1.50;99.90;;;;;;5036144;28;20025;-80
2022/12/09 08:13:14;;;;;;;58.03;32.78;;;1.60;99.90;;;;;;5037129;28;20021;-83
2022/12/09 08:15:40;;;;;;;59.13;31.70;;;1.60;99.90;;;;;;5021471;28;20533;-79
2022/12/09 08:18:06;;;;;;;61.38;31.98;;;1.50;99.90;;;;;;5043213;28;20032;-82
2022/12/09 08:20:31;;;;;;;57.08;29.75;;;1.50;99.90;;;;;;5047860;28;20151;-83
2022/12/09 08:22:57;;;;;;;60.42;33.72;;;1.50;99.90;;;;;;5042095;28;20017;-82
2022/12/09 08:25:23;;;;;;;55.63;30.30;;;1.50;99.90;;;;;;5039985;28;20485;-83
2022/12/09 08:27:49;;;;;;;54.55;28.92;;;1.50;99.90;;;;;;5038861;28;20112;-81
2022/12/09 08:30:15;;;;;;;55.92;29.15;;;1.50;99.90;;;;;;5037329;28;20036;-81
2022/12/09 08:32:41;;;;;;;52.22;27.60;;;1.50;99.90;;;;;;5040811;28;20028;-82
2022/12/09 08:35:13;;;;;;;55.03;27.77;;;1.60;99.90;;;;;;5041967;28;20037;-80
2022/12/09 08:37:43;;;;;;;53.10;28.98;;;1.60;99.90;;;;;;5045437;28;20032;-80
2022/12/09 08:40:09;;;;;;;49.88;27.08;;;1.70;99.90;;;;;;5046266;28;20040;-80
2022/12/09 08:42:35;;;;;;;49.88;26.73;;;1.70;99.90;;;;;;5044319;28;20045;-79
2022/12/09 08:45:02;;;;;;;53.60;30.58;;;1.80;99.90;;;;;;5044763;28;20053;-82
2022/12/09 08:47:27;;;;;;;54.28;29.95;;;1.80;99.90;;;;;;5047065;28;20044;-82
2022/12/09 08:49:53;;;;;;;58.65;29.08;;;1.80;99.90;;;;;;5043404;28;20020;-82
2022/12/09 08:52:18;;;;;;;55.50;30.65;;;1.80;99.90;;;;;;5043538;28;20598;-82
2022/12/09 08:54:44;;;;;;;55.53;29.65;;;1.80;99.90;;;;;;5042331;28;20378;-82
2022/12/09 08:57:10;;;;;;;61.58;30.73;;;1.90;99.90;;;;;;5041573;28;20087;-82
2022/12/09 08:59:35;;;;;;;71.13;34.10;;;1.90;99.90;;;;;;5038534;28;20027;-82
2022/12/09 09:02:01;;;;;;;66.13;32.55;;;1.90;99.90;;;;;;5049448;28;20466;-79
2022/12/09 09:04:27;;;;;;;63.75;30.70;;;1.90;99.90;;;;;;5041208;28;20063;-81
2022/12/09 09:06:52;;;;;;;58.13;30.05;;;2.00;99.90;;;;;;5063804;28;20033;-82
2022/12/09 09:09:19;;;;;;;56.75;29.40;;;2.00;99.90;;;;;;5064302;28;20075;-82
2022/12/09 09:11:45;;;;;;;69.13;35.53;;;2.00;99.90;;;;;;5056863;28;20063;-82
2022/12/09 09:14:12;;;;;;;73.20;36.88;;;2.10;99.90;;;;;;5053099;28;20052;-82
2022/12/09 09:16:40;;;;;;;69.45;37.15;;;2.10;99.90;;;;;;5058225;28;20029;-81
2022/12/09 09:19:06;;;;;;;63.50;29.38;;;2.10;99.90;;;;;;5054789;28;20036;-81
2022/12/09 09:21:32;;;;;;;80.35;39.55;;;2.10;99.90;;;;;;5054233;28;20033;-82
2022/12/09 09:23:59;;;;;;;74.80;36.65;;;2.10;99.90;;;;;;5056384;28;20060;-82
2022/12/09 09:26:26;;;;;;;66.28;32.58;;;2.10;99.90;;;;;;5070189;28;20063;-82
2022/12/09 09:28:54;;;;;;;64.60;34.25;;;2.10;99.90;;;;;;5072804;28;20032;-81
2022/12/09 09:31:21;;;;;;;74.90;35.08;;;2.10;99.90;;;;;;5068769;28;20028;-81
2022/12/09 09:33:47;;;;;;;54.72;28.40;;;2.20;99.90;;;;;;5066647;28;20055;-82
2022/12/09 09:36:19;;;;;;;55.13;27.00;;;2.30;99.90;;;;;;5074098;28;20078;-80
2022/12/09 09:38:46;;;;;;;52.90;26.90;;;2.30;99.90;;;;;;5066101;28;20025;-81
2022/12/09 09:41:52;;;;;;;47.45;25.48;;;2.40;99.90;;;;;;5074560;28;20024;-82
2022/12/09 09:44:28;;;;;;;50.30;24.95;;;2.50;99.90;;;;;;5069714;28;20028;-82
2022/12/09 09:46:55;;;;;;;47.90;24.52;;;2.60;99.90;;;;;;5056104;28;20060;-82
2022/12/09 09:49:35;;;;;;;44.28;22.60;;;2.60;99.90;;;;;;5054573;28;20037;-82
2022/12/09 09:52:15;;;;;;;40.15;23.38;;;2.60;99.90;;;;;;5055098;28;20067;-81
2022/12/09 09:54:41;;;;;;;46.28;24.45;;;2.70;99.90;;;;;;5058419;28;20028;-82
2022/12/09 09:57:48;;;;;;;39.28;22.75;;;2.70;99.90;;;;;;5053950;28;20021;-82
2022/12/09 10:00:22;;;;;;;36.42;20.65;;;2.80;99.90;;;;;;5048009;28;20104;-81
2022/12/09 10:03:05;;;;;;;39.03;21.50;;;2.80;99.90;;;;;;5073042;28;20504;-79
2022/12/09 10:05:36;;;;;;;;;;;2.90;99.90;;;;;;5073238;28;20028;-81
2022/12/09 10:08:08;;;;;;;57.42;27.95;;;2.90;99.90;;;;;;5073171;28;20266;-79
2022/12/09 10:10:59;;;;;;;49.60;24.83;;;3.00;99.90;;;;;;5070007;28;20478;-81
2022/12/09 10:13:40;;;;;;;33.65;19.17;;;3.00;99.90;;;;;;5052635;28;20422;-82
2022/12/09 10:16:15;;;;;;;31.73;18.83;;;3.10;99.90;;;;;;5050669;28;20031;-81
2022/12/09 10:19:03;;;;;;;34.85;19.40;;;3.30;99.90;;;;;;5070863;28;20052;-81
2022/12/09 10:21:31;;;;;;;32.47;18.15;;;3.30;99.90;;;;;;5066591;28;20112;-81
2022/12/09 10:24:10;;;;;;;31.23;18.83;;;3.30;99.90;;;;;;5067651;28;20078;-81
2022/12/09 10:26:37;;;;;;;31.92;18.63;;;3.40;99.90;;;;;;5067305;28;20037;-81
2022/12/09 10:29:20;;;;;;;36.20;20.92;;;3.30;99.90;;;;;;5073699;28;20478;-81
2022/12/09 10:31:46;;;;;;;44.10;22.20;;;3.40;99.90;;;;;;5060136;28;20513;-81
2022/12/09 10:34:12;;;;;;;34.28;19.25;;;3.40;99.90;;;;;;5072554;28;20052;-81
2022/12/09 10:36:46;;;;;;;35.13;18.17;;;3.30;99.90;;;;;;5065956;28;20411;-81
2022/12/09 10:39:20;;;;;;;35.15;19.33;;;3.30;99.90;;;;;;5056185;28;20025;-82
2022/12/09 10:44:37;;;;;;;32.22;18.25;;;3.40;99.90;;;;;;5073196;28;20055;-82
2022/12/09 10:47:18;;;;;;;34.22;18.63;;;3.50;99.90;;;;;;5058632;28;20032;-82
2022/12/09 10:49:45;;;;;;;28.23;16.10;;;3.60;99.90;;;;;;5073128;28;20025;-79
2022/12/09 10:52:21;;;;;;;28.63;15.07;;;3.50;99.90;;;;;;5043155;28;20551;-81
2022/12/09 10:54:47;;;;;;;26.67;15.35;;;3.60;99.90;;;;;;5068000;28;20082;-82
2022/12/09 10:57:12;;;;;;;27.38;16.67;;;3.60;99.90;;;;;;5072321;28;20024;-82
2022/12/09 10:59:40;;;;;;;27.02;16.27;;;3.60;99.90;;;;;;5069904;28;20025;-81
2022/12/09 11:02:09;;;;;;;30.00;16.13;;;3.70;99.90;;;;;;5050226;28;20430;-79
2022/12/09 11:04:35;;;;;;;22.55;13.40;;;3.70;99.90;;;;;;5071548;28;20486;-81
2022/12/09 11:07:25;;;;;;;24.75;13.27;;;3.70;99.90;;;;;;5065480;28;20025;-82
2022/12/09 11:09:56;;;;;;;19.70;12.70;;;3.60;99.90;;;;;;5070345;28;20508;-82
2022/12/09 11:12:25;;;;;;;19.23;12.52;;;3.60;99.90;;;;;;5067334;28;20093;-80
2022/12/09 11:14:58;;;;;;;20.08;12.63;;;3.60;99.90;;;;;;5071474;28;20489;-77
2022/12/09 11:17:33;;;;;;;21.05;13.43;;;3.70;99.90;;;;;;5071407;28;20035;-80
2022/12/09 11:20:04;;;;;;;19.58;12.32;;;3.60;99.90;;;;;;5071488;28;20474;-80
2022/12/09 11:22:42;;;;;;;25.98;14.40;;;3.60;99.90;;;;;;5071251;28;20056;-82
2022/12/09 11:25:11;;;;;;;22.52;12.10;;;3.70;99.90;;;;;;5071721;28;20074;-81
2022/12/09 11:28:01;;;;;;;23.90;14.20;;;3.70;99.90;;;;;;5064802;28;20082;-81
2022/12/09 11:30:41;;;;;;;29.13;16.88;;;3.70;99.90;;;;;;5072731;28;20396;-79
2022/12/09 11:33:12;;;;;;;23.25;15.38;;;3.60;99.90;;;;;;5071236;28;20024;-78
2022/12/09 11:35:51;;;;;;;21.55;12.55;;;3.60;99.90;;;;;;5071443;28;20070;-80
2022/12/09 11:38:29;;;;;;;33.45;17.55;;;3.60;99.90;;;;;;5071504;28;20035;-80
2022/12/09 11:41:10;;;;;;;29.00;15.15;;;3.50;99.90;;;;;;5070895;28;20120;-79
2022/12/09 11:43:47;;;;;;;24.42;12.30;;;3.60;99.90;;;;;;5071304;28;20074;-80
2022/12/09 11:46:12;;;;;;;21.33;12.38;;;3.60;99.90;;;;;;5060509;28;20041;-81
2022/12/09 11:48:48;;;;;;;23.35;14.13;;;3.60;99.90;;;;;;5064625;28;20389;-81
2022/12/09 11:51:21;;;;;;;24.42;14.45;;;3.70;99.90;;;;;;5072879;28;20013;-79
2022/12/09 11:53:46;;;;;;;;;;;3.70;99.90;;;;;;5064317;28;20052;-80
2022/12/09 11:56:18;;;;;;;26.38;14.77;;;3.70;99.90;;;;;;5071109;28;20358;-79
2022/12/09 11:58:57;;;;;;;26.10;14.30;;;3.60;99.90;;;;;;5071321;28;20070;-78
2022/12/09 12:01:44;;;;;;;32.65;14.95;;;3.70;99.90;;;;;;5072521;28;20108;-79
2022/12/09 12:04:18;;;;;;;39.25;20.35;;;3.70;99.90;;;;;;5047911;28;20024;-79
2022/12/09 12:06:57;;;;;;;28.20;14.45;;;3.60;99.90;;;;;;5069839;28;20033;-78
2022/12/09 12:09:30;;;;;;;34.15;16.48;;;3.60;99.90;;;;;;5073652;28;20021;-80
2022/12/09 12:12:05;;;;;;;;;;;3.50;99.90;;;;;;5070472;28;20535;-78
2022/12/09 12:14:34;;;;;;;19.25;11.25;;;3.50;99.90;;;;;;5074880;28;19905;-78
2022/12/09 12:17:06;;;;;;;18.05;11.65;;;3.50;99.90;;;;;;5075003;28;20020;-81
2022/12/09 12:19:36;;;;;;;18.15;10.15;;;3.50;99.90;;;;;;5075889;28;20051;-81
2022/12/09 12:22:20;;;;;;;20.73;12.38;;;3.50;99.90;;;;;;5075096;28;20025;-80
2022/12/09 12:25:15;;;;;;;20.30;11.70;;;3.50;99.90;;;;;;5074683;28;20024;-78
2022/12/09 12:27:46;;;;;;;22.95;12.45;;;3.50;99.90;;;;;;5074610;28;20498;-82
2022/12/09 12:30:19;;;;;;;22.25;12.52;;;3.50;99.90;;;;;;5074971;28;20024;-81
2022/12/09 12:33:14;;;;;;;21.48;12.73;;;3.50;99.90;;;;;;5076107;28;20027;-78
2022/12/09 12:36:10;;;;;;;21.45;12.98;;;3.40;99.90;;;;;;5074455;28;20099;-79
2022/12/09 12:38:49;;;;;;;18.33;11.30;;;3.40;99.90;;;;;;5054692;28;20036;-81
2022/12/09 12:41:25;;;;;;;20.30;11.57;;;3.40;99.90;;;;;;5053885;28;20024;-79
2022/12/09 12:47:16;;;;;;;17.67;10.50;;;3.40;99.90;;;;;;5057648;28;20560;-82
2022/12/09 12:50:04;;;;;;;22.35;12.07;;;3.40;99.90;;;;;;5054842;28;20013;-82
2022/12/09 12:52:44;;;;;;;17.40;10.40;;;3.30;99.90;;;;;;5059148;28;20028;-81
2022/12/09 12:55:13;;;;;;;26.63;14.18;;;3.20;99.90;;;;;;5068411;28;20041;-80
2022/12/09 12:58:14;;;;;;;24.77;14.43;;;3.20;99.90;;;;;;5066013;28;20025;-82